createdAt,value
2023-05-02T00:00:07.361Z,10.58
2023-05-02T00:02:30.166Z,10.55
2023-05-02T00:04:34.092Z,10.52
2023-05-02T00:06:37.033Z,10.50
2023-05-02T00:08:40.518Z,10.47
2023-05-02T00:10:43.126Z,10.42
2023-05-02T00:12:46.917Z,10.36
2023-05-02T00:14:49.507Z,10.34
2023-05-02T00:16:52.200Z,10.34
2023-05-02T00:18:55.622Z,10.34
2023-05-02T00:20:58.301Z,10.34
2023-05-02T00:23:00.973Z,10.34
2023-05-02T00:25:04.373Z,10.35
2023-05-02T00:27:08.424Z,10.36
2023-05-02T00:29:12.589Z,10.34
2023-05-02T00:31:16.673Z,10.34
2023-05-02T00:33:19.667Z,10.32
2023-05-02T00:35:22.182Z,10.31
2023-05-02T00:37:29.814Z,10.31
2023-05-02T00:39:37.243Z,10.31
2023-05-02T00:41:41.563Z,10.29
2023-05-02T00:43:44.475Z,10.28
2023-05-02T00:45:48.318Z,10.26
2023-05-02T00:47:53.153Z,10.24
2023-05-02T00:49:57.870Z,10.24
2023-05-02T00:52:02.587Z,10.24
2023-05-02T00:54:06.201Z,10.23
2023-05-02T00:56:09.990Z,10.22
2023-05-02T00:58:16.846Z,10.19
2023-05-02T01:00:20.223Z,10.23
2023-05-02T01:02:29.422Z,10.24
2023-05-02T01:05:11.930Z,10.27
2023-05-02T01:07:43.645Z,10.28
2023-05-02T01:10:05.868Z,10.27
2023-05-02T01:12:33.418Z,10.25
2023-05-02T01:14:50.777Z,10.22
2023-05-02T01:16:56.710Z,10.20
2023-05-02T01:19:05.965Z,10.20
2023-05-02T01:21:12.057Z,10.18
2023-05-02T01:23:31.141Z,10.17
2023-05-02T01:25:53.880Z,10.16
2023-05-02T01:28:29.932Z,10.15
2023-05-02T01:30:37.214Z,10.11
2023-05-02T01:32:41.633Z,10.08
2023-05-02T01:34:46.715Z,10.06
2023-05-02T01:36:52.036Z,10.02
2023-05-02T01:38:56.973Z,9.99
2023-05-02T01:41:05.296Z,9.98
2023-05-02T01:43:11.545Z,10.01
2023-05-02T01:45:15.740Z,10.01
2023-05-02T01:47:21.540Z,10.01
2023-05-02T01:49:25.888Z,10.01
2023-05-02T01:51:32.904Z,10.02
2023-05-02T01:53:35.788Z,10.04
2023-05-02T01:55:45.287Z,10.06
2023-05-02T01:57:52.031Z,10.05
2023-05-02T01:59:59.337Z,10.06
2023-05-02T02:02:04.609Z,10.05
2023-05-02T02:04:10.332Z,10.03
2023-05-02T02:06:14.488Z,10.03
2023-05-02T02:08:17.461Z,10.02
2023-05-02T02:10:22.614Z,9.99
2023-05-02T02:12:30.248Z,9.98
2023-05-02T02:14:43.328Z,9.99
2023-05-02T02:16:48.729Z,10.00
2023-05-02T02:18:55.023Z,9.98
2023-05-02T02:20:59.023Z,10.00
2023-05-02T02:23:07.353Z,9.99
2023-05-02T02:25:15.876Z,9.94
2023-05-02T02:27:20.471Z,9.89
2023-05-02T02:29:26.726Z,9.86
2023-05-02T02:31:35.055Z,9.86
2023-05-02T02:33:42.758Z,9.88
2023-05-02T02:35:53.860Z,9.90
2023-05-02T02:38:07.948Z,9.93
2023-05-02T02:40:24.715Z,9.95
2023-05-02T02:42:44.538Z,9.96
2023-05-02T02:44:47.154Z,9.95
2023-05-02T02:47:27.316Z,9.94
2023-05-02T02:49:50.077Z,9.95
2023-05-02T02:52:02.974Z,9.94
2023-05-02T02:54:27.675Z,9.96
2023-05-02T02:56:40.524Z,9.93
2023-05-02T02:58:58.269Z,9.88
2023-05-02T03:01:06.329Z,9.82
2023-05-02T03:03:10.695Z,9.79
2023-05-02T03:05:14.111Z,9.74
2023-05-02T03:07:20.408Z,9.72
2023-05-02T03:09:23.233Z,9.73
2023-05-02T03:11:28.309Z,9.74
2023-05-02T03:13:32.966Z,9.75
2023-05-02T03:15:54.113Z,9.78
2023-05-02T03:18:00.158Z,9.83
2023-05-02T03:20:05.719Z,9.85
2023-05-02T03:22:08.700Z,9.87
2023-05-02T03:24:12.866Z,9.85
2023-05-02T03:26:16.752Z,9.86
2023-05-02T03:28:19.894Z,9.87
2023-05-02T03:30:23.185Z,9.90
2023-05-02T03:32:28.133Z,9.92
2023-05-02T03:34:30.957Z,9.94
2023-05-02T03:36:34.692Z,9.95
2023-05-02T03:38:38.394Z,9.92
2023-05-02T03:40:41.949Z,9.90
2023-05-02T03:42:46.346Z,9.88
2023-05-02T03:44:56.067Z,9.88
2023-05-02T03:46:59.147Z,9.89
2023-05-02T03:49:04.151Z,9.88
2023-05-02T03:51:10.170Z,9.90
2023-05-02T03:53:18.434Z,9.94
2023-05-02T03:55:26.846Z,9.97
2023-05-02T03:57:32.019Z,9.99
2023-05-02T03:59:40.147Z,10.02
2023-05-02T04:01:44.355Z,10.03
2023-05-02T04:03:51.724Z,10.05
2023-05-02T04:05:56.643Z,10.06
2023-05-02T04:08:02.660Z,10.04
2023-05-02T04:10:06.930Z,10.00
2023-05-02T04:12:15.816Z,9.97
2023-05-02T04:14:22.274Z,9.97
2023-05-02T04:16:28.273Z,9.97
2023-05-02T04:18:31.974Z,9.95
2023-05-02T04:20:38.579Z,9.96
2023-05-02T04:22:42.112Z,9.96
2023-05-02T04:24:45.435Z,9.99
2023-05-02T04:26:49.767Z,10.03
2023-05-02T04:28:53.310Z,10.07
2023-05-02T04:30:56.746Z,10.09
2023-05-02T04:33:02.539Z,10.11
2023-05-02T04:35:10.873Z,10.12
2023-05-02T04:37:14.237Z,10.11
2023-05-02T04:39:20.260Z,10.08
2023-05-02T04:41:32.772Z,10.03
2023-05-02T04:43:42.581Z,10.02
2023-05-02T04:45:48.774Z,10.03
2023-05-02T04:48:01.029Z,10.03
2023-05-02T04:50:04.524Z,10.03
2023-05-02T04:52:08.034Z,10.03
2023-05-02T04:54:13.405Z,9.98
2023-05-02T04:56:18.850Z,9.96
2023-05-02T04:58:22.645Z,9.98
2023-05-02T05:00:32.351Z,10.03
2023-05-02T05:02:37.867Z,10.06
2023-05-02T05:04:40.859Z,10.08
2023-05-02T05:06:43.758Z,10.08
2023-05-02T05:08:51.351Z,10.08
2023-05-02T05:10:54.334Z,10.07
2023-05-02T05:12:57.973Z,10.09
2023-05-02T05:15:01.370Z,10.11
2023-05-02T05:17:05.424Z,10.14
2023-05-02T05:19:12.394Z,10.15
2023-05-02T05:21:15.782Z,10.17
2023-05-02T05:23:20.344Z,10.18
2023-05-02T05:25:23.524Z,10.18
2023-05-02T05:27:28.696Z,10.19
2023-05-02T05:29:33.452Z,10.21
2023-05-02T05:31:36.315Z,10.25
2023-05-02T05:33:41.633Z,10.29
2023-05-02T05:35:46.067Z,10.32
2023-05-02T05:37:48.632Z,10.34
2023-05-02T05:39:55.299Z,10.35
2023-05-02T05:42:01.468Z,10.34
2023-05-02T05:44:05.824Z,10.33
2023-05-02T05:46:12.243Z,10.32
2023-05-02T05:48:15.224Z,10.33
2023-05-02T05:50:20.915Z,10.33
2023-05-02T05:52:23.951Z,10.33
2023-05-02T05:54:28.994Z,10.32
2023-05-02T05:56:31.612Z,10.27
2023-05-02T05:58:44.896Z,10.22
2023-05-02T06:00:50.598Z,10.23
2023-05-02T06:02:53.865Z,10.26
2023-05-02T06:05:07.629Z,10.30
2023-05-02T06:07:11.278Z,10.33
2023-05-02T06:09:15.508Z,10.36
2023-05-02T06:11:21.869Z,10.38
2023-05-02T06:13:27.395Z,10.37
2023-05-02T06:15:34.775Z,10.37
2023-05-02T06:17:37.684Z,10.36
2023-05-02T06:19:41.292Z,10.37
2023-05-02T06:21:44.378Z,10.36
2023-05-02T06:23:47.126Z,10.36
2023-05-02T06:25:50.276Z,10.36
2023-05-02T06:27:52.894Z,10.37
2023-05-02T06:29:55.511Z,10.40
2023-05-02T06:32:00.583Z,10.42
2023-05-02T06:34:05.335Z,10.46
2023-05-02T06:36:07.943Z,10.47
2023-05-02T06:38:10.720Z,10.50
2023-05-02T06:40:15.182Z,10.50
2023-05-02T06:42:20.773Z,10.49
2023-05-02T06:44:24.012Z,10.49
2023-05-02T06:46:29.849Z,10.50
2023-05-02T06:48:32.535Z,10.52
2023-05-02T06:50:36.362Z,10.55
2023-05-02T06:52:40.487Z,10.57
2023-05-02T06:54:43.067Z,10.57
2023-05-02T06:56:47.889Z,10.60
2023-05-02T06:58:58.201Z,10.64
2023-05-02T07:01:00.880Z,10.68
2023-05-02T07:03:05.153Z,10.69
2023-05-02T07:05:08.927Z,10.70
2023-05-02T07:07:12.158Z,10.72
2023-05-02T07:09:15.728Z,10.75
2023-05-02T07:11:21.172Z,10.77
2023-05-02T07:13:23.829Z,10.81
2023-05-02T07:15:29.666Z,10.82
2023-05-02T07:17:32.393Z,10.84
2023-05-02T07:19:36.752Z,10.86
2023-05-02T07:21:39.527Z,10.91
2023-05-02T07:23:42.582Z,10.98
2023-05-02T07:25:45.871Z,11.02
2023-05-02T07:27:49.280Z,11.07
2023-05-02T07:29:54.236Z,11.11
2023-05-02T07:31:58.286Z,11.13
2023-05-02T07:34:02.814Z,11.17
2023-05-02T07:36:10.139Z,11.22
2023-05-02T07:38:13.125Z,11.27
2023-05-02T07:40:18.649Z,11.31
2023-05-02T07:42:22.525Z,11.34
2023-05-02T07:44:26.811Z,11.38
2023-05-02T07:46:30.311Z,11.44
2023-05-02T07:48:35.304Z,11.51
2023-05-02T07:50:37.897Z,11.58
2023-05-02T07:52:40.661Z,11.64
2023-05-02T07:54:43.540Z,11.72
2023-05-02T07:56:47.257Z,11.78
2023-05-02T07:58:51.872Z,11.83
2023-05-02T08:00:55.161Z,11.89
2023-05-02T08:02:58.203Z,11.94
2023-05-02T08:05:01.013Z,11.97
2023-05-02T08:07:05.427Z,12.01
2023-05-02T08:09:12.013Z,12.04
2023-05-02T08:11:14.784Z,12.09
2023-05-02T08:13:18.224Z,12.14
2023-05-02T08:15:20.923Z,12.21
2023-05-02T08:17:24.364Z,12.30
2023-05-02T08:19:28.033Z,12.39
2023-05-02T08:21:32.178Z,12.46
2023-05-02T08:23:34.788Z,12.50
2023-05-02T08:25:38.076Z,12.56
2023-05-02T08:27:41.512Z,12.60
2023-05-02T08:29:44.068Z,12.63
2023-05-02T08:31:46.791Z,12.67
2023-05-02T08:33:49.810Z,12.73
2023-05-02T08:35:53.236Z,12.76
2023-05-02T08:37:56.613Z,12.79
2023-05-02T08:40:00.669Z,12.82
2023-05-02T08:42:08.297Z,12.90
2023-05-02T08:44:12.574Z,12.97
2023-05-02T08:46:17.823Z,13.02
2023-05-02T08:48:21.724Z,13.08
2023-05-02T08:50:25.145Z,13.15
2023-05-02T08:52:29.756Z,13.22
2023-05-02T08:54:34.313Z,13.31
2023-05-02T08:56:38.980Z,13.36
2023-05-02T08:58:42.333Z,13.43
2023-05-02T09:00:48.810Z,13.52
2023-05-02T09:03:06.387Z,13.62
2023-05-02T09:05:12.361Z,13.74
2023-05-02T09:07:15.802Z,13.83
2023-05-02T09:09:19.221Z,13.85
2023-05-02T09:11:26.335Z,13.84
2023-05-02T09:13:51.757Z,13.87
2023-05-02T09:16:02.514Z,13.91
2023-05-02T09:18:05.479Z,13.93
2023-05-02T09:20:08.951Z,14.02
2023-05-02T09:22:12.152Z,14.11
2023-05-02T09:24:20.750Z,14.13
2023-05-02T09:26:32.119Z,14.22
2023-05-02T09:28:45.330Z,14.35
2023-05-02T09:30:48.380Z,14.46
2023-05-02T09:32:53.625Z,14.51
2023-05-02T09:35:09.806Z,14.52
2023-05-02T09:37:36.227Z,14.52
2023-05-02T09:39:39.028Z,14.57
2023-05-02T09:41:45.772Z,14.63
2023-05-02T09:44:02.335Z,14.65
2023-05-02T09:46:08.348Z,14.63
2023-05-02T09:48:12.543Z,14.66
2023-05-02T09:50:37.761Z,14.68
2023-05-02T09:52:41.536Z,14.71
2023-05-02T09:54:46.765Z,14.70
2023-05-02T09:56:56.820Z,14.73
2023-05-02T09:59:16.178Z,14.76
2023-05-02T10:01:21.418Z,14.80
2023-05-02T10:03:27.044Z,14.83
2023-05-02T10:05:31.363Z,14.87
2023-05-02T10:07:35.488Z,14.94
2023-05-02T10:09:46.613Z,14.96
2023-05-02T10:11:54.768Z,14.96
2023-05-02T10:13:59.912Z,14.92
2023-05-02T10:16:05.591Z,14.87
2023-05-02T10:18:18.295Z,14.88
2023-05-02T10:20:27.035Z,14.85
2023-05-02T10:22:32.885Z,14.84
2023-05-02T10:24:36.385Z,14.86
2023-05-02T10:26:39.625Z,14.85
2023-05-02T10:28:43.207Z,14.85
2023-05-02T10:30:46.507Z,14.88
2023-05-02T10:32:49.482Z,14.91
2023-05-02T10:34:56.642Z,14.95
2023-05-02T10:37:02.259Z,15.02
2023-05-02T10:39:07.135Z,15.05
2023-05-02T10:41:17.994Z,15.05
2023-05-02T10:43:22.214Z,15.01
2023-05-02T10:45:36.171Z,15.03
2023-05-02T10:47:39.083Z,15.10
2023-05-02T10:50:03.962Z,15.14
2023-05-02T10:52:30.758Z,15.14
2023-05-02T10:54:36.052Z,15.06
2023-05-02T10:57:03.484Z,15.04
2023-05-02T10:59:27.067Z,15.05
2023-05-02T11:01:30.474Z,15.03
2023-05-02T11:04:02.659Z,14.98
2023-05-02T11:06:09.927Z,14.94
2023-05-02T11:08:23.124Z,14.95
2023-05-02T11:10:28.485Z,14.98
2023-05-02T11:13:05.147Z,15.00
2023-05-02T11:15:11.824Z,15.04
2023-05-02T11:17:15.559Z,15.08
2023-05-02T11:19:20.268Z,15.13
2023-05-02T11:21:28.690Z,15.16
2023-05-02T11:23:33.722Z,15.19
2023-05-02T11:25:39.386Z,15.21
2023-05-02T11:27:46.793Z,15.21
2023-05-02T11:29:54.357Z,15.20
2023-05-02T11:32:01.081Z,15.22
2023-05-02T11:34:09.460Z,15.27
2023-05-02T11:36:12.600Z,15.33
2023-05-02T11:38:20.187Z,15.35
2023-05-02T11:40:29.540Z,15.42
2023-05-02T11:42:32.442Z,15.51
2023-05-02T11:44:59.929Z,15.57
2023-05-02T11:47:04.183Z,15.66
2023-05-02T11:49:09.328Z,15.72
2023-05-02T11:51:13.902Z,15.80
2023-05-02T11:53:23.714Z,15.88
2023-05-02T11:55:27.194Z,15.91
2023-05-02T11:57:34.034Z,15.91
2023-05-02T11:59:55.712Z,15.92
2023-05-02T12:02:01.815Z,15.99
2023-05-02T12:04:08.531Z,16.05
2023-05-02T12:06:13.074Z,16.10
2023-05-02T12:08:27.635Z,16.09
2023-05-02T12:10:38.309Z,16.10
2023-05-02T12:12:44.416Z,16.08
2023-05-02T12:14:47.342Z,16.04
2023-05-02T12:16:52.710Z,16.03
2023-05-02T12:18:58.337Z,15.97
2023-05-02T12:21:01.087Z,15.92
2023-05-02T12:23:12.176Z,15.90
2023-05-02T12:25:15.495Z,15.89
2023-05-02T12:27:18.869Z,15.88
2023-05-02T12:29:37.674Z,15.85
2023-05-02T12:31:41.232Z,15.83
2023-05-02T12:33:44.020Z,15.77
2023-05-02T12:35:47.687Z,15.74
2023-05-02T12:37:50.455Z,15.71
2023-05-02T12:39:56.453Z,15.72
2023-05-02T12:42:02.807Z,15.72
2023-05-02T12:44:07.459Z,15.69
2023-05-02T12:46:11.844Z,15.66
2023-05-02T12:48:32.021Z,15.63
2023-05-02T12:50:39.727Z,15.59
2023-05-02T12:52:59.101Z,15.61
2023-05-02T12:55:29.350Z,15.63
2023-05-02T12:57:32.024Z,15.70
2023-05-02T12:59:34.689Z,15.78
2023-05-02T13:01:37.972Z,15.89
2023-05-02T13:03:44.099Z,16.02
2023-05-02T13:05:49.388Z,16.11
2023-05-02T13:07:52.942Z,16.21
2023-05-02T13:09:57.638Z,16.33
2023-05-02T13:12:01.193Z,16.45
2023-05-02T13:14:05.986Z,16.57
2023-05-02T13:16:09.166Z,16.69
2023-05-02T13:18:13.429Z,16.80
2023-05-02T13:20:16.554Z,16.93
2023-05-02T13:22:20.455Z,17.05
2023-05-02T13:24:23.079Z,17.17
2023-05-02T13:26:26.415Z,17.31
2023-05-02T13:28:33.487Z,17.40
2023-05-02T13:30:37.930Z,17.49
2023-05-02T13:32:40.924Z,17.58
2023-05-02T13:34:45.419Z,17.66
2023-05-02T13:36:49.848Z,17.73
2023-05-02T13:38:52.728Z,17.73
2023-05-02T13:40:55.573Z,17.70
2023-05-02T13:42:59.007Z,17.69
2023-05-02T13:45:05.580Z,17.68
2023-05-02T13:47:08.373Z,17.66
2023-05-02T13:49:11.062Z,17.62
2023-05-02T13:51:13.678Z,17.57
2023-05-02T13:53:16.267Z,17.57
2023-05-02T13:55:21.700Z,17.65
2023-05-02T13:57:24.801Z,17.76
2023-05-02T13:59:27.984Z,17.87
2023-05-02T14:01:31.393Z,17.98
2023-05-02T14:03:34.223Z,18.10
2023-05-02T14:05:37.333Z,18.20
2023-05-02T14:07:40.113Z,18.33
2023-05-02T14:09:42.875Z,18.40
2023-05-02T14:11:49.427Z,18.41
2023-05-02T14:13:52.929Z,18.39
2023-05-02T14:15:55.603Z,18.34
2023-05-02T14:17:58.943Z,18.28
2023-05-02T14:20:01.871Z,18.19
2023-05-02T14:22:07.995Z,18.12
2023-05-02T14:24:12.679Z,18.05
2023-05-02T14:26:16.075Z,17.95
2023-05-02T14:28:19.881Z,17.89
2023-05-02T14:30:23.062Z,17.85
2023-05-02T14:32:26.389Z,17.85
2023-05-02T14:34:33.601Z,17.84
2023-05-02T14:36:37.337Z,17.81
2023-05-02T14:38:39.903Z,17.81
2023-05-02T14:40:49.965Z,17.79
2023-05-02T14:42:54.136Z,17.78
2023-05-02T14:44:59.488Z,17.77
2023-05-02T14:47:03.400Z,17.72
2023-05-02T14:49:06.476Z,17.67
2023-05-02T14:51:09.066Z,17.65
2023-05-02T14:53:14.313Z,17.62
2023-05-02T14:55:18.792Z,17.59
2023-05-02T14:57:25.701Z,17.56
2023-05-02T14:59:29.706Z,17.54
2023-05-02T15:01:35.079Z,17.54
2023-05-02T15:03:56.512Z,17.52
2023-05-02T15:06:03.884Z,17.49
2023-05-02T15:08:06.911Z,17.47
2023-05-02T15:10:12.793Z,17.43
2023-05-02T15:12:16.239Z,17.40
2023-05-02T15:14:23.827Z,17.39
2023-05-02T15:16:30.199Z,17.38
2023-05-02T15:18:34.092Z,17.28
2023-05-02T15:20:36.725Z,17.20
2023-05-02T15:22:39.658Z,17.10
2023-05-02T15:24:45.039Z,16.94
2023-05-02T15:26:47.702Z,16.75
2023-05-02T15:28:51.068Z,16.55
2023-05-02T15:30:54.195Z,16.38
2023-05-02T15:32:58.803Z,16.28
2023-05-02T15:35:01.962Z,16.18
2023-05-02T15:37:05.071Z,16.06
2023-05-02T15:39:10.461Z,15.95
2023-05-02T15:41:13.136Z,15.97
2023-05-02T15:43:16.756Z,16.07
2023-05-02T15:45:22.787Z,16.11
2023-05-02T15:47:27.431Z,16.18
2023-05-02T15:49:33.244Z,16.21
2023-05-02T15:51:36.464Z,16.23
2023-05-02T15:53:44.060Z,16.22
2023-05-02T15:55:49.095Z,16.21
2023-05-02T15:57:53.233Z,16.18
2023-05-02T15:59:56.322Z,16.16
2023-05-02T16:02:03.110Z,16.12
2023-05-02T16:04:07.166Z,16.10
2023-05-02T16:06:11.318Z,16.04
2023-05-02T16:08:14.799Z,16.00
2023-05-02T16:10:18.432Z,15.94
2023-05-02T16:12:21.560Z,15.92
2023-05-02T16:14:26.107Z,15.90
2023-05-02T16:16:30.155Z,15.92
2023-05-02T16:18:34.330Z,15.97
2023-05-02T16:20:37.046Z,16.01
2023-05-02T16:22:39.561Z,16.09
2023-05-02T16:24:42.813Z,16.17
2023-05-02T16:26:46.665Z,16.32
2023-05-02T16:28:49.249Z,16.53
2023-05-02T16:30:52.946Z,16.78
2023-05-02T16:32:55.801Z,16.78
2023-05-02T16:34:59.207Z,16.68
2023-05-02T16:37:03.965Z,16.53
2023-05-02T16:39:08.260Z,16.40
2023-05-02T16:41:11.058Z,16.28
2023-05-02T16:43:15.214Z,16.31
2023-05-02T16:45:18.272Z,16.58
2023-05-02T16:47:21.505Z,16.97
2023-05-02T16:49:24.378Z,17.34
2023-05-02T16:51:27.969Z,17.70
2023-05-02T16:53:31.627Z,17.83
2023-05-02T16:55:35.549Z,17.68
2023-05-02T16:57:39.130Z,17.42
2023-05-02T16:59:44.112Z,17.18
2023-05-02T17:01:47.255Z,16.96
2023-05-02T17:03:50.182Z,16.77
2023-05-02T17:06:00.778Z,16.59
2023-05-02T17:08:09.203Z,16.41
2023-05-02T17:10:12.955Z,16.32
2023-05-02T17:12:22.263Z,16.21
2023-05-02T17:14:24.952Z,16.11
2023-05-02T17:16:27.592Z,16.02
2023-05-02T17:18:31.911Z,15.96
2023-05-02T17:20:36.199Z,15.88
2023-05-02T17:22:39.385Z,15.77
2023-05-02T17:24:43.859Z,15.67
2023-05-02T17:26:46.982Z,15.55
2023-05-02T17:28:53.591Z,15.44
2023-05-02T17:31:00.099Z,15.37
2023-05-02T17:33:02.919Z,15.25
2023-05-02T17:35:06.920Z,15.17
2023-05-02T17:37:09.614Z,15.08
2023-05-02T17:39:13.534Z,15.01
2023-05-02T17:41:16.391Z,14.92
2023-05-02T17:43:20.055Z,14.82
2023-05-02T17:45:23.364Z,14.76
2023-05-02T17:47:26.537Z,14.70
2023-05-02T17:49:33.558Z,14.68
2023-05-02T17:51:36.615Z,14.65
2023-05-02T17:53:39.932Z,14.62
2023-05-02T17:55:43.991Z,14.57
2023-05-02T17:57:47.008Z,14.56
2023-05-02T17:59:56.666Z,14.54
2023-05-02T18:02:15.882Z,14.54
2023-05-02T18:04:27.384Z,14.53
2023-05-02T18:06:34.898Z,14.48
2023-05-02T18:08:38.275Z,14.46
2023-05-02T18:10:48.610Z,14.42
2023-05-02T18:12:55.906Z,14.39
2023-05-02T18:15:00.561Z,14.38
2023-05-02T18:17:09.893Z,14.32
2023-05-02T18:19:15.622Z,14.27
2023-05-02T18:21:25.616Z,14.23
2023-05-02T18:23:30.266Z,14.18
2023-05-02T18:25:37.843Z,14.11
2023-05-02T18:27:42.484Z,14.05
2023-05-02T18:29:47.496Z,13.98
2023-05-02T18:32:00.322Z,13.91
2023-05-02T18:34:04.709Z,13.84
2023-05-02T18:36:09.140Z,13.77
2023-05-02T18:38:15.641Z,13.72
2023-05-02T18:40:19.086Z,13.67
2023-05-02T18:42:23.280Z,13.60
2023-05-02T18:44:26.224Z,13.57
2023-05-02T18:46:32.302Z,13.54
2023-05-02T18:48:36.459Z,13.50
2023-05-02T18:50:41.177Z,13.45
2023-05-02T18:52:45.366Z,13.35
2023-05-02T18:54:52.814Z,13.26
2023-05-02T18:56:58.546Z,13.14
2023-05-02T18:59:02.873Z,13.03
2023-05-02T19:01:11.789Z,12.99
2023-05-02T19:03:16.664Z,12.90
2023-05-02T19:05:22.167Z,12.83
2023-05-02T19:07:29.816Z,12.74
2023-05-02T19:09:37.103Z,12.68
2023-05-02T19:11:46.647Z,12.63
2023-05-02T19:13:51.129Z,12.56
2023-05-02T19:15:55.241Z,12.50
2023-05-02T19:17:59.128Z,12.42
2023-05-02T19:20:08.095Z,12.35
2023-05-02T19:22:13.946Z,12.31
2023-05-02T19:24:22.784Z,12.25
2023-05-02T19:26:28.534Z,12.18
2023-05-02T19:28:37.945Z,12.17
2023-05-02T19:30:43.509Z,12.18
2023-05-02T19:32:51.695Z,12.17
2023-05-02T19:34:55.679Z,12.13
2023-05-02T19:37:00.750Z,12.09
2023-05-02T19:39:05.906Z,12.04
2023-05-02T19:41:10.367Z,11.98
2023-05-02T19:43:14.792Z,11.93
2023-05-02T19:45:24.976Z,11.85
2023-05-02T19:47:33.354Z,11.78
2023-05-02T19:49:37.562Z,11.69
2023-05-02T19:51:44.563Z,11.63
2023-05-02T19:53:55.461Z,11.58
2023-05-02T19:56:10.058Z,11.53
2023-05-02T19:58:14.886Z,11.50
2023-05-02T20:00:20.824Z,11.48
2023-05-02T20:02:33.935Z,11.46
2023-05-02T20:04:40.291Z,11.45
2023-05-02T20:06:44.816Z,11.46
2023-05-02T20:08:48.753Z,11.44
2023-05-02T20:11:02.233Z,11.45
2023-05-02T20:13:05.873Z,11.47
2023-05-02T20:15:09.967Z,11.51
2023-05-02T20:17:14.073Z,11.54
2023-05-02T20:19:24.228Z,11.53
2023-05-02T20:21:36.362Z,11.49
2023-05-02T20:23:45.462Z,11.48
2023-05-02T20:25:48.753Z,11.48
2023-05-02T20:27:56.447Z,11.43
2023-05-02T20:30:02.749Z,11.37
2023-05-02T20:32:24.515Z,11.35
2023-05-02T20:34:30.819Z,11.33
2023-05-02T20:36:36.324Z,11.32
2023-05-02T20:38:48.997Z,11.31
2023-05-02T20:40:54.268Z,11.32
2023-05-02T20:43:04.013Z,11.35
2023-05-02T20:45:08.360Z,11.36
2023-05-02T20:47:13.683Z,11.37
2023-05-02T20:49:18.800Z,11.36
2023-05-02T20:51:23.441Z,11.38
2023-05-02T20:53:26.741Z,11.40
2023-05-02T20:55:31.720Z,11.43
2023-05-02T20:57:37.915Z,11.45
2023-05-02T20:59:49.714Z,11.49
2023-05-02T21:01:59.574Z,11.52
2023-05-02T21:04:06.911Z,11.55
2023-05-02T21:06:11.849Z,11.59
2023-05-02T21:08:16.067Z,11.61
2023-05-02T21:10:19.649Z,11.57
2023-05-02T21:12:23.409Z,11.53
2023-05-02T21:14:32.279Z,11.50
2023-05-02T21:16:41.612Z,11.50
2023-05-02T21:18:49.346Z,11.49
2023-05-02T21:20:55.846Z,11.47
2023-05-02T21:23:12.835Z,11.44
2023-05-02T21:25:17.078Z,11.43
2023-05-02T21:27:23.672Z,11.40
2023-05-02T21:29:29.899Z,11.39
2023-05-02T21:31:33.644Z,11.39
2023-05-02T21:33:41.101Z,11.37
2023-05-02T21:35:45.226Z,11.36
2023-05-02T21:37:49.913Z,11.34
2023-05-02T21:39:52.896Z,11.32
2023-05-02T21:41:58.778Z,11.30
2023-05-02T21:44:04.635Z,11.28
2023-05-02T21:46:16.108Z,11.24
2023-05-02T21:48:22.782Z,11.20
2023-05-02T21:50:30.026Z,11.20
2023-05-02T21:52:34.546Z,11.22
2023-05-02T21:54:54.033Z,11.21
2023-05-02T21:57:04.176Z,11.19
2023-05-02T21:59:09.303Z,11.18
2023-05-02T22:01:14.905Z,11.16
2023-05-02T22:03:20.980Z,11.19
2023-05-02T22:05:33.724Z,11.22
2023-05-02T22:07:38.432Z,11.22
2023-05-02T22:09:46.394Z,11.20
2023-05-02T22:11:54.673Z,11.18
2023-05-02T22:14:03.647Z,11.18
2023-05-02T22:16:18.280Z,11.19
2023-05-02T22:18:23.081Z,11.21
2023-05-02T22:20:29.107Z,11.22
2023-05-02T22:22:32.871Z,11.20
2023-05-02T22:24:39.505Z,11.17
2023-05-02T22:26:43.554Z,11.16
2023-05-02T22:28:48.429Z,11.15
2023-05-02T22:30:52.577Z,11.11
2023-05-02T22:32:57.035Z,11.11
2023-05-02T22:35:00.308Z,11.10
2023-05-02T22:37:09.562Z,11.10
2023-05-02T22:39:16.224Z,11.10
2023-05-02T22:41:24.608Z,11.11
2023-05-02T22:43:28.326Z,11.10
2023-05-02T22:45:34.403Z,11.10
2023-05-02T22:47:41.883Z,11.10
2023-05-02T22:49:47.634Z,11.10
2023-05-02T22:51:52.255Z,11.10
2023-05-02T22:53:55.544Z,11.12
2023-05-02T22:56:00.008Z,11.15
2023-05-02T22:58:03.732Z,11.15
2023-05-02T23:00:11.202Z,11.11
2023-05-02T23:02:14.767Z,11.07
2023-05-02T23:04:19.297Z,11.03
2023-05-02T23:06:24.564Z,11.02
2023-05-02T23:08:28.648Z,10.99
2023-05-02T23:10:32.570Z,10.94
2023-05-02T23:12:39.785Z,10.91
2023-05-02T23:14:48.004Z,10.90
2023-05-02T23:16:54.038Z,10.89
2023-05-02T23:18:59.686Z,10.89
2023-05-02T23:21:05.539Z,10.90
2023-05-02T23:23:11.694Z,10.89
2023-05-02T23:25:16.755Z,10.89
2023-05-02T23:27:22.504Z,10.90
2023-05-02T23:29:26.172Z,10.88
2023-05-02T23:31:31.566Z,10.88
2023-05-02T23:33:36.803Z,10.85
2023-05-02T23:35:41.245Z,10.82
2023-05-02T23:37:48.187Z,10.79
2023-05-02T23:39:55.129Z,10.78
2023-05-02T23:42:01.878Z,10.77
2023-05-02T23:44:10.253Z,10.76
2023-05-02T23:46:13.512Z,10.75
2023-05-02T23:48:21.086Z,10.71
2023-05-02T23:50:29.725Z,10.69
2023-05-02T23:52:37.002Z,10.70
2023-05-02T23:54:43.224Z,10.72
2023-05-02T23:56:48.579Z,10.71
2023-05-02T23:58:54.007Z,10.67
